createdAt,value
2023-02-22T00:01:50.465Z,100699.79
2023-02-22T00:04:07.106Z,100698.75
2023-02-22T00:06:25.268Z,100705.84
2023-02-22T00:08:37.541Z,100706.79
2023-02-22T00:10:53.101Z,100704.59
2023-02-22T00:13:07.696Z,100702.77
2023-02-22T00:15:22.832Z,100704.92
2023-02-22T00:17:35.433Z,100701.38
2023-02-22T00:19:49.067Z,100708.41
2023-02-22T00:22:00.754Z,100706.95
2023-02-22T00:24:23.513Z,100708.88
2023-02-22T00:26:35.295Z,100710.33
2023-02-22T00:28:54.693Z,100707.75
2023-02-22T00:31:07.983Z,100707.69
2023-02-22T00:33:20.316Z,100703.98
2023-02-22T00:35:32.601Z,100704.25
2023-02-22T00:37:48.620Z,100704.29
2023-02-22T00:40:00.777Z,100706.83
2023-02-22T00:42:12.874Z,100710.09
2023-02-22T00:44:24.765Z,100713.00
2023-02-22T00:46:36.554Z,100717.73
2023-02-22T00:48:48.649Z,100721.77
2023-02-22T00:51:02.899Z,100721.23
2023-02-22T00:53:16.146Z,100718.36
2023-02-22T00:55:31.266Z,100723.19
2023-02-22T00:57:43.392Z,100723.58
2023-02-22T00:59:55.587Z,100724.54
2023-02-22T01:02:09.765Z,100724.09
2023-02-22T01:04:22.238Z,100723.27
2023-02-22T01:06:35.982Z,100725.26
2023-02-22T01:08:48.992Z,100724.73
2023-02-22T01:11:02.634Z,100728.92
2023-02-22T01:13:15.237Z,100726.94
2023-02-22T01:15:30.926Z,100729.77
2023-02-22T01:17:43.998Z,100730.05
2023-02-22T01:19:56.440Z,100732.19
2023-02-22T01:22:09.051Z,100728.45
2023-02-22T01:24:21.045Z,100734.48
2023-02-22T01:26:33.062Z,100737.64
2023-02-22T01:28:44.728Z,100741.48
2023-02-22T01:30:56.993Z,100739.51
2023-02-22T01:33:09.488Z,100733.28
2023-02-22T01:35:28.043Z,100733.35
2023-02-22T01:37:40.588Z,100733.86
2023-02-22T01:39:52.378Z,100732.96
2023-02-22T01:42:04.579Z,100733.64
2023-02-22T01:44:35.650Z,100732.87
2023-02-22T01:46:47.817Z,100731.41
2023-02-22T01:49:06.775Z,100737.79
2023-02-22T01:51:24.360Z,100737.46
2023-02-22T01:54:03.130Z,100738.05
2023-02-22T01:56:16.549Z,100734.65
2023-02-22T01:58:33.769Z,100739.44
2023-02-22T02:00:45.974Z,100734.69
2023-02-22T02:03:01.932Z,100738.11
2023-02-22T02:05:15.127Z,100737.95
2023-02-22T02:07:29.866Z,100738.16
2023-02-22T02:10:06.611Z,100740.23
2023-02-22T02:12:20.057Z,100733.31
2023-02-22T02:14:32.959Z,100732.96
2023-02-22T02:16:49.247Z,100735.05
2023-02-22T02:19:03.552Z,100739.36
2023-02-22T02:21:34.949Z,100741.29
2023-02-22T02:24:09.267Z,100743.70
2023-02-22T02:26:59.562Z,100742.23
2023-02-22T02:29:30.603Z,100743.02
2023-02-22T02:32:27.589Z,100749.40
2023-02-22T02:35:04.638Z,100743.12
2023-02-22T02:37:43.253Z,100745.87
2023-02-22T02:40:13.841Z,100743.58
2023-02-22T02:42:34.892Z,100742.23
2023-02-22T02:45:08.863Z,100740.86
2023-02-22T02:47:29.723Z,100740.14
2023-02-22T02:50:00.153Z,100741.27
2023-02-22T02:52:13.477Z,100739.45
2023-02-22T02:54:26.680Z,100734.85
2023-02-22T02:56:38.889Z,100736.50
2023-02-22T02:58:53.468Z,100739.55
2023-02-22T03:01:08.398Z,100740.61
2023-02-22T03:03:27.327Z,100743.44
2023-02-22T03:05:59.629Z,100742.91
2023-02-22T03:08:34.766Z,100738.54
2023-02-22T03:11:15.552Z,100741.97
2023-02-22T03:13:42.790Z,100735.58
2023-02-22T03:16:03.005Z,100738.21
2023-02-22T03:18:38.486Z,100738.59
2023-02-22T03:21:00.349Z,100738.34
2023-02-22T03:23:34.359Z,100738.09
2023-02-22T03:25:52.085Z,100740.08
2023-02-22T03:28:11.634Z,100739.37
2023-02-22T03:30:29.054Z,100747.09
2023-02-22T03:32:47.211Z,100742.66
2023-02-22T03:35:07.845Z,100746.11
2023-02-22T03:37:25.956Z,100749.73
2023-02-22T03:39:39.076Z,100753.34
2023-02-22T03:41:53.981Z,100755.20
2023-02-22T03:44:12.289Z,100758.95
2023-02-22T03:46:24.551Z,100758.39
2023-02-22T03:48:49.072Z,100759.95
2023-02-22T03:51:04.527Z,100760.47
2023-02-22T03:53:19.237Z,100760.20
2023-02-22T03:55:31.713Z,100760.14
2023-02-22T03:57:51.204Z,100762.86
2023-02-22T04:00:07.590Z,100761.98
2023-02-22T04:02:24.693Z,100767.04
2023-02-22T04:04:37.790Z,100764.10
2023-02-22T04:06:50.219Z,100771.90
2023-02-22T04:09:03.158Z,100775.52
2023-02-22T04:11:15.839Z,100776.50
2023-02-22T04:13:28.253Z,100777.77
2023-02-22T04:15:40.897Z,100780.16
2023-02-22T04:17:55.327Z,100781.64
2023-02-22T04:20:08.436Z,100786.25
2023-02-22T04:22:28.421Z,100784.09
2023-02-22T04:24:41.342Z,100784.85
2023-02-22T04:26:55.249Z,100787.27
2023-02-22T04:29:08.511Z,100785.81
2023-02-22T04:31:23.474Z,100789.30
2023-02-22T04:33:36.829Z,100785.16
2023-02-22T04:35:49.198Z,100787.07
2023-02-22T04:38:01.494Z,100791.81
2023-02-22T04:40:13.182Z,100789.02
2023-02-22T04:42:25.388Z,100789.82
2023-02-22T04:44:37.682Z,100788.98
2023-02-22T04:46:50.260Z,100790.51
2023-02-22T04:49:02.387Z,100791.55
2023-02-22T04:51:16.986Z,100791.66
2023-02-22T04:53:39.702Z,100792.72
2023-02-22T04:55:52.842Z,100790.92
2023-02-22T04:58:05.622Z,100795.35
2023-02-22T05:00:21.636Z,100793.36
2023-02-22T05:02:33.845Z,100793.88
2023-02-22T05:04:46.146Z,100788.20
2023-02-22T05:06:57.801Z,100792.89
2023-02-22T05:09:09.490Z,100793.42
2023-02-22T05:11:22.414Z,100790.83
2023-02-22T05:13:34.404Z,100794.69
2023-02-22T05:15:46.201Z,100794.27
2023-02-22T05:17:58.343Z,100792.86
2023-02-22T05:20:19.774Z,100791.75
2023-02-22T05:22:31.592Z,100789.92
2023-02-22T05:24:44.105Z,100794.40
2023-02-22T05:26:55.789Z,100794.05
2023-02-22T05:29:07.681Z,100796.95
2023-02-22T05:31:19.779Z,100800.23
2023-02-22T05:33:31.983Z,100803.27
2023-02-22T05:35:44.024Z,100796.70
2023-02-22T05:37:56.481Z,100799.70
2023-02-22T05:40:09.225Z,100802.14
2023-02-22T05:42:21.595Z,100801.33
2023-02-22T05:44:33.385Z,100798.62
2023-02-22T05:46:45.208Z,100798.47
2023-02-22T05:48:56.968Z,100804.27
2023-02-22T05:51:09.834Z,100817.66
2023-02-22T05:53:23.924Z,100814.77
2023-02-22T05:55:36.027Z,100818.20
2023-02-22T05:57:48.122Z,100824.64
2023-02-22T06:00:00.016Z,100825.34
2023-02-22T06:02:12.052Z,100826.98
2023-02-22T06:04:23.796Z,100830.02
2023-02-22T06:06:35.894Z,100835.31
2023-02-22T06:08:47.473Z,100835.05
2023-02-22T06:10:59.372Z,100835.52
2023-02-22T06:13:11.110Z,100838.41
2023-02-22T06:15:25.088Z,100837.38
2023-02-22T06:17:36.891Z,100838.29
2023-02-22T06:19:48.679Z,100845.92
2023-02-22T06:22:01.081Z,100850.95
2023-02-22T06:24:13.893Z,100852.95
2023-02-22T06:26:25.990Z,100853.69
2023-02-22T06:28:38.192Z,100857.45
2023-02-22T06:30:49.466Z,100860.65
2023-02-22T06:33:01.608Z,100863.60
2023-02-22T06:35:14.640Z,100869.18
2023-02-22T06:37:26.545Z,100868.14
2023-02-22T06:39:38.077Z,100873.02
2023-02-22T06:41:51.486Z,100876.02
2023-02-22T06:44:04.204Z,100878.26
2023-02-22T06:46:15.989Z,100879.89
2023-02-22T06:48:27.987Z,100883.99
2023-02-22T06:50:40.088Z,100882.66
2023-02-22T06:52:52.689Z,100882.30
2023-02-22T06:55:04.809Z,100885.39
2023-02-22T06:57:17.233Z,100885.35
2023-02-22T06:59:29.291Z,100882.94
2023-02-22T07:01:42.818Z,100884.52
2023-02-22T07:03:54.617Z,100886.20
2023-02-22T07:06:07.356Z,100887.75
2023-02-22T07:08:18.778Z,100893.31
2023-02-22T07:10:31.745Z,100887.52
2023-02-22T07:12:43.571Z,100887.86
2023-02-22T07:14:56.544Z,100895.34
2023-02-22T07:17:08.187Z,100894.69
2023-02-22T07:19:20.933Z,100899.20
2023-02-22T07:21:32.725Z,100903.83
2023-02-22T07:23:54.243Z,100900.38
2023-02-22T07:26:06.033Z,100900.25
2023-02-22T07:28:19.433Z,100898.61
2023-02-22T07:30:34.299Z,100896.16
2023-02-22T07:32:47.077Z,100900.73
2023-02-22T07:34:59.347Z,100899.58
2023-02-22T07:37:11.457Z,100902.37
2023-02-22T07:39:23.687Z,100901.92
2023-02-22T07:41:35.626Z,100901.55
2023-02-22T07:43:47.405Z,100899.09
2023-02-22T07:46:02.966Z,100899.11
2023-02-22T07:48:17.325Z,100896.10
2023-02-22T07:50:31.485Z,100895.10
2023-02-22T07:52:47.730Z,100893.57
2023-02-22T07:55:00.700Z,100891.28
2023-02-22T07:57:13.996Z,100895.45
2023-02-22T07:59:25.692Z,100898.04
2023-02-22T08:01:37.596Z,100897.77
2023-02-22T08:03:49.461Z,100899.50
2023-02-22T08:06:03.164Z,100898.19
2023-02-22T08:08:18.823Z,100894.98
2023-02-22T08:10:31.891Z,100886.90
2023-02-22T08:12:43.828Z,100894.83
2023-02-22T08:14:55.622Z,100899.66
2023-02-22T08:17:08.824Z,100904.32
2023-02-22T08:19:23.089Z,100904.28
2023-02-22T08:21:35.082Z,100910.02
2023-02-22T08:23:51.591Z,100913.79
2023-02-22T08:26:09.200Z,100919.94
2023-02-22T08:28:23.615Z,100917.22
2023-02-22T08:30:39.038Z,100924.41
2023-02-22T08:32:52.243Z,100921.63
2023-02-22T08:35:05.278Z,100917.88
2023-02-22T08:37:18.254Z,100918.35
2023-02-22T08:39:29.883Z,100919.36
2023-02-22T08:41:41.885Z,100916.95
2023-02-22T08:43:53.769Z,100917.79
2023-02-22T08:46:05.481Z,100922.08
2023-02-22T08:48:18.585Z,100923.88
2023-02-22T08:50:33.837Z,100927.42
2023-02-22T08:52:53.384Z,100929.86
2023-02-22T08:55:08.387Z,100929.27
2023-02-22T08:57:21.733Z,100927.96
2023-02-22T08:59:34.008Z,100931.39
2023-02-22T09:01:45.752Z,100931.02
2023-02-22T09:03:58.232Z,100936.89
2023-02-22T09:06:14.037Z,100936.54
2023-02-22T09:08:26.388Z,100935.29
2023-02-22T09:10:38.801Z,100943.67
2023-02-22T09:12:52.117Z,100949.58
2023-02-22T09:15:04.216Z,100949.17
2023-02-22T09:17:16.006Z,100954.92
2023-02-22T09:19:28.821Z,100956.23
2023-02-22T09:21:41.542Z,100952.37
2023-02-22T09:23:54.843Z,100952.94
2023-02-22T09:26:10.751Z,100957.23
2023-02-22T09:28:24.709Z,100960.79
2023-02-22T09:30:37.564Z,100959.95
2023-02-22T09:32:51.523Z,100959.33
2023-02-22T09:35:03.739Z,100961.69
2023-02-22T09:37:15.560Z,100957.91
2023-02-22T09:39:28.178Z,100958.75
2023-02-22T09:41:57.033Z,100956.76
2023-02-22T09:44:28.277Z,100955.31
2023-02-22T09:46:45.961Z,100952.08
2023-02-22T09:49:05.431Z,100953.66
2023-02-22T09:51:20.745Z,100958.27
2023-02-22T09:53:42.039Z,100955.04
2023-02-22T09:55:57.860Z,100960.84
2023-02-22T09:58:22.129Z,100961.45
2023-02-22T10:00:38.831Z,100958.12
2023-02-22T10:03:31.174Z,100956.19
2023-02-22T10:05:53.744Z,100956.15
2023-02-22T10:08:12.834Z,100955.67
2023-02-22T10:10:33.585Z,100950.34
2023-02-22T10:13:09.943Z,100949.30
2023-02-22T10:15:42.841Z,100948.03
2023-02-22T10:18:03.536Z,100945.17
2023-02-22T10:20:37.435Z,100945.48
2023-02-22T10:23:03.773Z,100942.30
2023-02-22T10:25:20.634Z,100945.04
2023-02-22T10:27:39.497Z,100947.52
2023-02-22T10:30:26.008Z,100952.58
2023-02-22T10:32:45.712Z,100950.66
2023-02-22T10:35:00.952Z,100948.84
2023-02-22T10:37:24.406Z,100952.48
2023-02-22T10:39:39.918Z,100946.08
2023-02-22T10:42:05.793Z,100946.66
2023-02-22T10:44:17.747Z,100946.06
2023-02-22T10:46:32.565Z,100945.18
2023-02-22T10:48:48.228Z,100943.29
2023-02-22T10:51:02.255Z,100943.01
2023-02-22T10:53:17.895Z,100942.66
2023-02-22T10:55:29.885Z,100941.16
2023-02-22T10:57:47.061Z,100938.69
2023-02-22T11:00:14.102Z,100933.54
2023-02-22T11:02:35.249Z,100938.52
2023-02-22T11:04:55.744Z,100937.18
2023-02-22T11:07:14.521Z,100934.94
2023-02-22T11:09:29.071Z,100937.09
2023-02-22T11:11:44.438Z,100933.11
2023-02-22T11:13:57.365Z,100933.11
2023-02-22T11:16:31.662Z,100932.67
2023-02-22T11:18:43.603Z,100930.72
2023-02-22T11:21:05.552Z,100932.19
2023-02-22T11:23:23.566Z,100935.59
2023-02-22T11:25:39.220Z,100931.20
2023-02-22T11:27:52.648Z,100933.47
2023-02-22T11:30:22.138Z,100933.47
2023-02-22T11:32:36.598Z,100931.23
2023-02-22T11:35:03.461Z,100929.48
2023-02-22T11:37:36.716Z,100929.55
2023-02-22T11:39:51.293Z,100928.32
2023-02-22T11:42:27.473Z,100931.20
2023-02-22T11:44:44.054Z,100932.61
2023-02-22T11:47:01.573Z,100930.67
2023-02-22T11:49:17.461Z,100931.13
2023-02-22T11:51:32.227Z,100928.82
2023-02-22T11:54:13.916Z,100929.92
2023-02-22T11:56:38.119Z,100928.84
2023-02-22T11:59:08.217Z,100931.02
2023-02-22T12:01:55.414Z,100931.48
2023-02-22T12:04:40.463Z,100928.04
2023-02-22T12:07:15.573Z,100928.46
2023-02-22T12:09:40.851Z,100928.45
2023-02-22T12:12:17.684Z,100927.30
2023-02-22T12:14:49.530Z,100923.98
2023-02-22T12:17:07.895Z,100925.31
2023-02-22T12:19:39.982Z,100923.87
2023-02-22T12:22:03.288Z,100923.05
2023-02-22T12:24:27.848Z,100922.52
2023-02-22T12:26:42.280Z,100922.77
2023-02-22T12:29:09.408Z,100922.48
2023-02-22T12:31:36.102Z,100920.39
2023-02-22T12:34:27.501Z,100918.50
2023-02-22T12:36:51.961Z,100921.55
2023-02-22T12:39:21.026Z,100919.83
2023-02-22T12:41:55.450Z,100921.27
2023-02-22T12:44:23.538Z,100914.60
2023-02-22T12:46:41.749Z,100918.44
2023-02-22T12:49:31.913Z,100913.75
2023-02-22T12:51:52.543Z,100917.34
2023-02-22T12:54:16.560Z,100917.81
2023-02-22T12:56:34.590Z,100917.65
2023-02-22T12:58:54.478Z,100920.86
2023-02-22T13:01:18.147Z,100927.16
2023-02-22T13:03:42.552Z,100928.83
2023-02-22T13:06:26.582Z,100930.55
2023-02-22T13:08:56.792Z,100932.76
2023-02-22T13:11:38.684Z,100935.84
2023-02-22T13:14:14.743Z,100933.77
2023-02-22T13:16:56.641Z,100934.32
2023-02-22T13:19:24.304Z,100933.69
2023-02-22T13:21:55.754Z,100930.41
2023-02-22T13:24:22.779Z,100929.09
2023-02-22T13:26:52.221Z,100924.02
2023-02-22T13:29:16.894Z,100925.06
2023-02-22T13:31:57.939Z,100923.79
2023-02-22T13:34:31.984Z,100921.00
2023-02-22T13:37:17.977Z,100916.23
2023-02-22T13:39:35.907Z,100914.19
2023-02-22T13:41:57.320Z,100913.89
2023-02-22T13:44:13.718Z,100916.20
2023-02-22T13:46:44.615Z,100916.55
2023-02-22T13:49:19.082Z,100921.16
2023-02-22T13:51:53.496Z,100919.80
2023-02-22T13:54:17.989Z,100920.79
2023-02-22T13:56:30.561Z,100923.98
2023-02-22T13:59:21.499Z,100920.92
2023-02-22T14:01:42.685Z,100921.98
2023-02-22T14:04:23.702Z,100917.56
2023-02-22T14:06:39.106Z,100922.91
2023-02-22T14:08:50.850Z,100923.45
2023-02-22T14:11:31.823Z,100919.23
2023-02-22T14:14:09.069Z,100917.65
2023-02-22T14:16:32.435Z,100918.45
2023-02-22T14:19:09.545Z,100916.43
2023-02-22T14:21:33.224Z,100915.96
2023-02-22T14:23:56.647Z,100913.69
2023-02-22T14:26:34.191Z,100913.68
2023-02-22T14:29:06.603Z,100921.77
2023-02-22T14:31:35.349Z,100917.88
2023-02-22T14:33:59.622Z,100913.70
2023-02-22T14:36:13.596Z,100914.45
2023-02-22T14:38:26.274Z,100914.59
2023-02-22T14:40:42.900Z,100916.16
2023-02-22T14:43:15.354Z,100918.89
2023-02-22T14:45:34.389Z,100921.25
2023-02-22T14:48:17.128Z,100921.03
2023-02-22T14:50:45.421Z,100920.16
2023-02-22T14:53:12.245Z,100918.44
2023-02-22T14:55:26.417Z,100917.18
2023-02-22T14:57:53.763Z,100920.86
2023-02-22T15:00:33.191Z,100915.66
2023-02-22T15:02:55.348Z,100916.02
2023-02-22T15:05:08.238Z,100917.17
2023-02-22T15:07:28.761Z,100919.73
2023-02-22T15:09:41.064Z,100918.50
2023-02-22T15:12:03.884Z,100917.59
2023-02-22T15:14:26.291Z,100918.31
2023-02-22T15:16:44.667Z,100917.42
2023-02-22T15:19:03.960Z,100915.20
2023-02-22T15:21:19.525Z,100912.88
2023-02-22T15:23:43.823Z,100914.02
2023-02-22T15:25:55.805Z,100916.34
2023-02-22T15:28:09.751Z,100915.92
2023-02-22T15:30:28.170Z,100916.70
2023-02-22T15:32:56.937Z,100913.98
2023-02-22T15:35:20.327Z,100918.94
2023-02-22T15:37:33.497Z,100914.95
2023-02-22T15:39:53.017Z,100910.98
2023-02-22T15:42:08.105Z,100912.55
2023-02-22T15:44:24.411Z,100910.77
2023-02-22T15:46:36.686Z,100912.39
2023-02-22T15:49:10.183Z,100910.17
2023-02-22T15:51:22.301Z,100911.26
2023-02-22T15:53:45.370Z,100911.77
2023-02-22T15:56:00.299Z,100912.60
2023-02-22T15:58:23.874Z,100910.33
2023-02-22T16:00:38.668Z,100908.30
2023-02-22T16:02:51.854Z,100912.45
2023-02-22T16:05:10.234Z,100912.43
2023-02-22T16:07:24.540Z,100915.44
2023-02-22T16:09:37.972Z,100915.43
2023-02-22T16:11:50.781Z,100914.36
2023-02-22T16:14:06.118Z,100917.02
2023-02-22T16:16:20.971Z,100924.94
2023-02-22T16:18:36.403Z,100925.35
2023-02-22T16:21:02.110Z,100924.45
2023-02-22T16:23:28.646Z,100927.60
2023-02-22T16:25:40.535Z,100931.83
2023-02-22T16:28:00.316Z,100934.10
2023-02-22T16:30:24.492Z,100937.27
2023-02-22T16:32:37.970Z,100941.77
2023-02-22T16:34:50.658Z,100944.44
2023-02-22T16:37:02.365Z,100945.06
2023-02-22T16:39:27.492Z,100941.52
2023-02-22T16:41:40.040Z,100941.00
2023-02-22T16:43:54.420Z,100945.39
2023-02-22T16:46:07.286Z,100945.62
2023-02-22T16:48:22.675Z,100948.28
2023-02-22T16:50:35.186Z,100951.81
2023-02-22T16:52:47.842Z,100952.27
2023-02-22T16:55:02.199Z,100954.54
2023-02-22T16:57:24.982Z,100955.95
2023-02-22T16:59:39.333Z,100957.38
2023-02-22T17:01:51.327Z,100955.44
2023-02-22T17:04:09.521Z,100961.65
2023-02-22T17:06:22.689Z,100960.09
2023-02-22T17:08:34.374Z,100963.02
2023-02-22T17:10:51.733Z,100957.66
2023-02-22T17:13:21.303Z,100961.98
2023-02-22T17:15:35.683Z,100959.52
2023-02-22T17:17:48.978Z,100961.46
2023-02-22T17:20:01.804Z,100959.61
2023-02-22T17:22:20.610Z,100960.23
2023-02-22T17:24:34.291Z,100958.61
2023-02-22T17:26:46.684Z,100961.51
2023-02-22T17:28:58.629Z,100960.61
2023-02-22T17:31:20.762Z,100959.29
2023-02-22T17:33:36.753Z,100963.05
2023-02-22T17:35:48.903Z,100970.59
2023-02-22T17:38:01.815Z,100972.16
2023-02-22T17:40:14.926Z,100974.43
2023-02-22T17:42:27.150Z,100973.43
2023-02-22T17:44:39.235Z,100975.80
2023-02-22T17:46:52.991Z,100977.10
2023-02-22T17:49:04.569Z,100973.09
2023-02-22T17:51:16.655Z,100970.02
2023-02-22T17:53:28.547Z,100969.02
2023-02-22T17:55:42.216Z,100967.86
2023-02-22T17:57:59.536Z,100967.22
2023-02-22T18:00:23.488Z,100969.14
2023-02-22T18:02:35.677Z,100967.14
2023-02-22T18:04:47.665Z,100973.05
2023-02-22T18:07:00.376Z,100973.91
2023-02-22T18:09:14.756Z,100971.66
2023-02-22T18:11:28.863Z,100975.80
2023-02-22T18:13:41.708Z,100976.82
2023-02-22T18:16:00.042Z,100975.94
2023-02-22T18:18:13.062Z,100979.88
2023-02-22T18:20:31.325Z,100977.88
2023-02-22T18:22:44.067Z,100972.55
2023-02-22T18:25:00.159Z,100972.23
2023-02-22T18:27:14.955Z,100973.06
2023-02-22T18:29:29.079Z,100974.95
2023-02-22T18:31:40.747Z,100970.68
2023-02-22T18:33:53.006Z,100969.40
2023-02-22T18:36:05.804Z,100968.21
2023-02-22T18:38:26.090Z,100973.32
2023-02-22T18:40:38.387Z,100974.20
2023-02-22T18:42:50.387Z,100975.26
2023-02-22T18:45:04.836Z,100970.00
2023-02-22T18:47:17.411Z,100968.77
2023-02-22T18:49:29.336Z,100971.54
2023-02-22T18:51:43.748Z,100973.48
2023-02-22T18:54:00.795Z,100973.36
2023-02-22T18:56:16.121Z,100967.83
2023-02-22T18:58:28.069Z,100968.48
2023-02-22T19:00:40.064Z,100969.03
2023-02-22T19:02:53.916Z,100965.30
2023-02-22T19:05:06.611Z,100966.81
2023-02-22T19:07:20.245Z,100970.86
2023-02-22T19:09:32.867Z,100973.05
2023-02-22T19:11:46.803Z,100970.17
2023-02-22T19:13:58.800Z,100971.75
2023-02-22T19:16:10.525Z,100971.08
2023-02-22T19:18:23.775Z,100973.31
2023-02-22T19:20:36.086Z,100969.79
2023-02-22T19:22:49.442Z,100965.73
2023-02-22T19:25:01.644Z,100962.58
2023-02-22T19:27:16.972Z,100962.45
2023-02-22T19:29:31.306Z,100964.30
2023-02-22T19:31:46.025Z,100965.44
2023-02-22T19:34:09.172Z,100962.37
2023-02-22T19:36:25.771Z,100960.55
2023-02-22T19:38:38.632Z,100967.55
2023-02-22T19:40:51.091Z,100962.61
2023-02-22T19:43:03.186Z,100959.76
2023-02-22T19:45:15.067Z,100961.66
2023-02-22T19:47:26.975Z,100961.02
2023-02-22T19:49:41.255Z,100962.30
2023-02-22T19:51:53.316Z,100964.29
2023-02-22T19:54:07.368Z,100965.98
2023-02-22T19:56:27.037Z,100968.86
2023-02-22T19:58:40.870Z,100968.16
2023-02-22T20:00:52.638Z,100966.86
2023-02-22T20:03:09.492Z,100966.02
2023-02-22T20:05:21.056Z,100973.14
2023-02-22T20:07:33.665Z,100971.45
2023-02-22T20:09:45.657Z,100967.75
2023-02-22T20:11:57.377Z,100970.05
2023-02-22T20:14:17.619Z,100975.02
2023-02-22T20:16:30.237Z,100980.08
2023-02-22T20:18:47.773Z,100976.33
2023-02-22T20:21:09.705Z,100974.73
2023-02-22T20:23:24.263Z,100970.50
2023-02-22T20:25:36.305Z,100971.41
2023-02-22T20:27:47.932Z,100974.77
2023-02-22T20:29:59.927Z,100971.06
2023-02-22T20:32:15.149Z,100969.96
2023-02-22T20:34:31.435Z,100971.41
2023-02-22T20:36:43.591Z,100970.18
2023-02-22T20:38:59.175Z,100968.04
2023-02-22T20:41:15.796Z,100968.16
2023-02-22T20:43:28.033Z,100968.64
2023-02-22T20:45:41.296Z,100965.23
2023-02-22T20:47:52.985Z,100965.84
2023-02-22T20:50:05.849Z,100961.73
2023-02-22T20:52:17.590Z,100962.20
2023-02-22T20:54:29.245Z,100955.84
2023-02-22T20:56:43.729Z,100958.63
2023-02-22T20:59:01.499Z,100956.24
2023-02-22T21:01:17.178Z,100955.33
2023-02-22T21:03:29.296Z,100954.02
2023-02-22T21:05:45.873Z,100953.58
2023-02-22T21:07:58.589Z,100952.92
2023-02-22T21:10:10.426Z,100950.59
2023-02-22T21:12:22.342Z,100951.58
2023-02-22T21:14:34.897Z,100948.36
2023-02-22T21:16:49.032Z,100950.92
2023-02-22T21:19:04.165Z,100946.98
2023-02-22T21:21:16.719Z,100946.16
2023-02-22T21:23:30.278Z,100945.83
2023-02-22T21:25:53.200Z,100939.41
2023-02-22T21:28:05.555Z,100938.58
2023-02-22T21:30:17.957Z,100937.70
2023-02-22T21:32:29.635Z,100940.16
2023-02-22T21:34:42.258Z,100940.89
2023-02-22T21:36:54.752Z,100943.19
2023-02-22T21:39:18.436Z,100944.16
2023-02-22T21:41:31.657Z,100943.47
2023-02-22T21:43:48.909Z,100941.55
2023-02-22T21:46:04.848Z,100940.92
2023-02-22T21:48:17.497Z,100942.05
2023-02-22T21:50:31.246Z,100938.19
2023-02-22T21:52:48.756Z,100934.07
2023-02-22T21:55:01.478Z,100934.89
2023-02-22T21:57:15.394Z,100932.55
2023-02-22T21:59:27.805Z,100938.02
2023-02-22T22:01:47.558Z,100940.41
2023-02-22T22:04:01.895Z,100939.79
2023-02-22T22:06:14.555Z,100945.17
2023-02-22T22:08:28.156Z,100948.11
2023-02-22T22:10:39.638Z,100945.48
2023-02-22T22:12:52.960Z,100947.08
2023-02-22T22:15:05.373Z,100948.64
2023-02-22T22:17:17.356Z,100943.31
2023-02-22T22:19:30.705Z,100946.16
2023-02-22T22:21:42.986Z,100942.15
2023-02-22T22:23:56.299Z,100941.98
2023-02-22T22:26:13.127Z,100938.58
2023-02-22T22:28:27.159Z,100942.43
2023-02-22T22:30:39.988Z,100939.41
2023-02-22T22:32:51.762Z,100936.51
2023-02-22T22:35:05.320Z,100937.75
2023-02-22T22:37:17.594Z,100935.99
2023-02-22T22:39:29.383Z,100934.50
2023-02-22T22:41:45.010Z,100934.39
2023-02-22T22:43:56.554Z,100933.34
2023-02-22T22:46:08.952Z,100929.66
2023-02-22T22:48:22.891Z,100927.60
2023-02-22T22:50:34.681Z,100925.20
2023-02-22T22:52:46.778Z,100923.73
2023-02-22T22:55:00.822Z,100927.24
2023-02-22T22:57:13.839Z,100930.53
2023-02-22T22:59:25.323Z,100926.86
2023-02-22T23:01:40.666Z,100924.02
2023-02-22T23:04:04.568Z,100929.59
2023-02-22T23:06:16.672Z,100927.63
2023-02-22T23:08:29.477Z,100929.65
2023-02-22T23:10:41.890Z,100928.02
2023-02-22T23:12:55.990Z,100929.36
2023-02-22T23:15:08.947Z,100932.09
2023-02-22T23:17:31.543Z,100930.99
2023-02-22T23:19:45.100Z,100932.38
2023-02-22T23:21:59.215Z,100934.98
2023-02-22T23:24:15.289Z,100934.07
2023-02-22T23:26:27.353Z,100927.78
2023-02-22T23:28:41.042Z,100929.80
2023-02-22T23:30:53.043Z,100931.02
2023-02-22T23:33:05.293Z,100929.59
2023-02-22T23:35:19.234Z,100928.88
2023-02-22T23:37:35.555Z,100927.20
2023-02-22T23:39:48.862Z,100921.39
2023-02-22T23:42:00.549Z,100917.02
2023-02-22T23:44:17.565Z,100917.95
2023-02-22T23:46:33.014Z,100913.23
2023-02-22T23:48:51.133Z,100906.06
2023-02-22T23:51:10.618Z,100908.21
2023-02-22T23:53:22.732Z,100905.16
2023-02-22T23:55:39.275Z,100904.60
2023-02-22T23:57:51.121Z,100901.56
